sensor_id;sensor_type;location;lat;lon;timestamp;P1;durP1;ratioP1;P2;durP2;ratioP2
8486;SDS011;4280;50.534;8.708;2024-02-14T00:02:20;10.93;;;5.40;;
8486;SDS011;4280;50.534;8.708;2024-02-14T00:04:47;10.40;;;5.00;;
8486;SDS011;4280;50.534;8.708;2024-02-14T00:07:13;11.23;;;4.63;;
8486;SDS011;4280;50.534;8.708;2024-02-14T00:09:39;5.37;;;3.77;;
8486;SDS011;4280;50.534;8.708;2024-02-14T00:12:05;6.20;;;3.50;;
8486;SDS011;4280;50.534;8.708;2024-02-14T00:14:31;11.20;;;4.83;;
8486;SDS011;4280;50.534;8.708;2024-02-14T00:16:57;10.17;;;5.10;;
8486;SDS011;4280;50.534;8.708;2024-02-14T00:19:24;8.23;;;3.87;;
8486;SDS011;4280;50.534;8.708;2024-02-14T00:21:50;10.17;;;3.83;;
8486;SDS011;4280;50.534;8.708;2024-02-14T00:24:16;10.70;;;4.17;;
8486;SDS011;4280;50.534;8.708;2024-02-14T00:26:44;5.80;;;3.50;;
8486;SDS011;4280;50.534;8.708;2024-02-14T00:29:11;11.90;;;3.33;;
8486;SDS011;4280;50.534;8.708;2024-02-14T00:31:37;8.37;;;4.40;;
8486;SDS011;4280;50.534;8.708;2024-02-14T00:34:02;5.63;;;2.90;;
8486;SDS011;4280;50.534;8.708;2024-02-14T00:36:29;6.83;;;3.50;;
8486;SDS011;4280;50.534;8.708;2024-02-14T00:38:55;7.43;;;3.13;;
8486;SDS011;4280;50.534;8.708;2024-02-14T00:41:21;10.20;;;3.60;;
8486;SDS011;4280;50.534;8.708;2024-02-14T00:43:46;7.43;;;3.57;;
8486;SDS011;4280;50.534;8.708;2024-02-14T00:46:18;6.63;;;3.40;;
8486;SDS011;4280;50.534;8.708;2024-02-14T00:48:44;6.67;;;3.63;;
8486;SDS011;4280;50.534;8.708;2024-02-14T00:51:10;6.07;;;3.40;;
8486;SDS011;4280;50.534;8.708;2024-02-14T00:53:36;7.43;;;3.70;;
8486;SDS011;4280;50.534;8.708;2024-02-14T00:56:01;6.23;;;2.90;;
8486;SDS011;4280;50.534;8.708;2024-02-14T00:58:27;8.30;;;3.23;;
8486;SDS011;4280;50.534;8.708;2024-02-14T01:00:53;8.40;;;2.77;;
8486;SDS011;4280;50.534;8.708;2024-02-14T01:03:19;11.47;;;3.20;;
8486;SDS011;4280;50.534;8.708;2024-02-14T01:05:45;6.03;;;3.13;;
8486;SDS011;4280;50.534;8.708;2024-02-14T01:08:12;12.27;;;3.67;;
8486;SDS011;4280;50.534;8.708;2024-02-14T01:10:39;15.67;;;3.43;;
8486;SDS011;4280;50.534;8.708;2024-02-14T01:13:05;5.60;;;2.50;;
8486;SDS011;4280;50.534;8.708;2024-02-14T01:15:34;11.23;;;3.80;;
8486;SDS011;4280;50.534;8.708;2024-02-14T01:18:00;8.30;;;3.73;;
8486;SDS011;4280;50.534;8.708;2024-02-14T01:20:25;12.27;;;3.27;;
8486;SDS011;4280;50.534;8.708;2024-02-14T01:22:51;5.00;;;3.03;;
8486;SDS011;4280;50.534;8.708;2024-02-14T01:25:17;8.13;;;3.80;;
8486;SDS011;4280;50.534;8.708;2024-02-14T01:27:43;4.10;;;3.30;;
8486;SDS011;4280;50.534;8.708;2024-02-14T01:30:09;4.77;;;3.43;;
8486;SDS011;4280;50.534;8.708;2024-02-14T01:32:36;10.53;;;3.30;;
8486;SDS011;4280;50.534;8.708;2024-02-14T01:35:03;8.00;;;3.83;;
8486;SDS011;4280;50.534;8.708;2024-02-14T01:37:30;5.20;;;3.37;;
8486;SDS011;4280;50.534;8.708;2024-02-14T01:39:55;8.97;;;3.50;;
8486;SDS011;4280;50.534;8.708;2024-02-14T01:42:21;10.30;;;3.40;;
8486;SDS011;4280;50.534;8.708;2024-02-14T01:44:47;8.03;;;4.27;;
8486;SDS011;4280;50.534;8.708;2024-02-14T01:47:13;8.27;;;3.17;;
8486;SDS011;4280;50.534;8.708;2024-02-14T01:49:39;6.20;;;3.70;;
8486;SDS011;4280;50.534;8.708;2024-02-14T01:52:09;7.60;;;3.87;;
8486;SDS011;4280;50.534;8.708;2024-02-14T01:54:35;6.70;;;3.80;;
8486;SDS011;4280;50.534;8.708;2024-02-14T01:57:01;8.23;;;3.60;;
8486;SDS011;4280;50.534;8.708;2024-02-14T01:59:28;11.30;;;4.23;;
8486;SDS011;4280;50.534;8.708;2024-02-14T02:01:55;10.93;;;3.70;;
8486;SDS011;4280;50.534;8.708;2024-02-14T02:04:21;6.80;;;3.57;;
8486;SDS011;4280;50.534;8.708;2024-02-14T02:06:46;8.33;;;4.20;;
8486;SDS011;4280;50.534;8.708;2024-02-14T02:09:12;11.87;;;4.23;;
8486;SDS011;4280;50.534;8.708;2024-02-14T02:11:44;10.87;;;3.90;;
8486;SDS011;4280;50.534;8.708;2024-02-14T02:14:13;9.77;;;4.20;;
8486;SDS011;4280;50.534;8.708;2024-02-14T02:16:42;7.47;;;3.57;;
8486;SDS011;4280;50.534;8.708;2024-02-14T02:19:11;6.27;;;3.73;;
8486;SDS011;4280;50.534;8.708;2024-02-14T02:21:36;8.43;;;4.70;;
8486;SDS011;4280;50.534;8.708;2024-02-14T02:24:03;5.33;;;3.43;;
8486;SDS011;4280;50.534;8.708;2024-02-14T02:26:29;5.23;;;3.77;;
8486;SDS011;4280;50.534;8.708;2024-02-14T02:28:55;13.77;;;3.87;;
8486;SDS011;4280;50.534;8.708;2024-02-14T02:31:21;9.23;;;4.00;;
8486;SDS011;4280;50.534;8.708;2024-02-14T02:33:47;6.27;;;3.83;;
8486;SDS011;4280;50.534;8.708;2024-02-14T02:36:14;10.40;;;4.43;;
8486;SDS011;4280;50.534;8.708;2024-02-14T02:38:41;7.03;;;4.60;;
8486;SDS011;4280;50.534;8.708;2024-02-14T02:41:07;8.00;;;4.00;;
8486;SDS011;4280;50.534;8.708;2024-02-14T02:43:33;7.97;;;4.57;;
8486;SDS011;4280;50.534;8.708;2024-02-14T02:46:00;12.27;;;5.03;;
8486;SDS011;4280;50.534;8.708;2024-02-14T02:48:26;10.17;;;4.10;;
8486;SDS011;4280;50.534;8.708;2024-02-14T02:50:52;5.83;;;4.43;;
8486;SDS011;4280;50.534;8.708;2024-02-14T02:53:17;8.60;;;4.03;;
8486;SDS011;4280;50.534;8.708;2024-02-14T02:55:44;15.40;;;5.00;;
8486;SDS011;4280;50.534;8.708;2024-02-14T02:58:10;8.27;;;3.87;;
8486;SDS011;4280;50.534;8.708;2024-02-14T03:00:37;15.70;;;4.50;;
8486;SDS011;4280;50.534;8.708;2024-02-14T03:03:02;15.53;;;3.87;;
8486;SDS011;4280;50.534;8.708;2024-02-14T03:05:33;12.90;;;4.73;;
8486;SDS011;4280;50.534;8.708;2024-02-14T03:07:59;7.00;;;4.10;;
8486;SDS011;4280;50.534;8.708;2024-02-14T03:10:25;12.87;;;4.73;;
8486;SDS011;4280;50.534;8.708;2024-02-14T03:12:52;12.80;;;5.37;;
8486;SDS011;4280;50.534;8.708;2024-02-14T03:15:18;16.77;;;5.77;;
8486;SDS011;4280;50.534;8.708;2024-02-14T03:17:44;11.73;;;4.80;;
8486;SDS011;4280;50.534;8.708;2024-02-14T03:20:13;11.30;;;4.17;;
8486;SDS011;4280;50.534;8.708;2024-02-14T03:22:39;6.53;;;4.90;;
8486;SDS011;4280;50.534;8.708;2024-02-14T03:25:18;10.07;;;4.70;;
8486;SDS011;4280;50.534;8.708;2024-02-14T03:27:45;7.63;;;4.40;;
8486;SDS011;4280;50.534;8.708;2024-02-14T03:30:14;9.23;;;5.00;;
8486;SDS011;4280;50.534;8.708;2024-02-14T03:32:41;20.17;;;5.20;;
8486;SDS011;4280;50.534;8.708;2024-02-14T03:35:10;7.37;;;4.20;;
8486;SDS011;4280;50.534;8.708;2024-02-14T03:37:38;10.80;;;4.87;;
8486;SDS011;4280;50.534;8.708;2024-02-14T03:40:07;9.70;;;4.93;;
8486;SDS011;4280;50.534;8.708;2024-02-14T03:42:34;8.80;;;4.40;;
8486;SDS011;4280;50.534;8.708;2024-02-14T03:45:01;12.17;;;5.47;;
8486;SDS011;4280;50.534;8.708;2024-02-14T03:47:34;11.93;;;5.10;;
8486;SDS011;4280;50.534;8.708;2024-02-14T03:50:00;7.90;;;4.90;;
8486;SDS011;4280;50.534;8.708;2024-02-14T03:52:27;8.17;;;4.70;;
8486;SDS011;4280;50.534;8.708;2024-02-14T03:54:53;7.60;;;3.93;;
8486;SDS011;4280;50.534;8.708;2024-02-14T03:57:23;11.23;;;4.10;;
8486;SDS011;4280;50.534;8.708;2024-02-14T03:59:50;12.23;;;4.93;;
8486;SDS011;4280;50.534;8.708;2024-02-14T04:02:17;7.40;;;4.37;;
8486;SDS011;4280;50.534;8.708;2024-02-14T04:04:44;4.77;;;4.13;;
8486;SDS011;4280;50.534;8.708;2024-02-14T04:07:11;12.00;;;4.37;;
8486;SDS011;4280;50.534;8.708;2024-02-14T04:09:37;14.60;;;4.87;;
8486;SDS011;4280;50.534;8.708;2024-02-14T04:12:03;6.20;;;4.60;;
8486;SDS011;4280;50.534;8.708;2024-02-14T04:14:30;11.13;;;4.90;;
8486;SDS011;4280;50.534;8.708;2024-02-14T04:16:56;9.27;;;4.70;;
8486;SDS011;4280;50.534;8.708;2024-02-14T04:19:22;11.63;;;4.80;;
8486;SDS011;4280;50.534;8.708;2024-02-14T04:21:48;10.53;;;5.40;;
8486;SDS011;4280;50.534;8.708;2024-02-14T04:24:14;8.20;;;5.20;;
8486;SDS011;4280;50.534;8.708;2024-02-14T04:26:39;8.37;;;4.47;;
8486;SDS011;4280;50.534;8.708;2024-02-14T04:29:05;11.93;;;4.50;;
8486;SDS011;4280;50.534;8.708;2024-02-14T04:31:33;9.97;;;4.77;;
8486;SDS011;4280;50.534;8.708;2024-02-14T04:33:58;9.07;;;4.43;;
8486;SDS011;4280;50.534;8.708;2024-02-14T04:36:25;11.90;;;4.60;;
8486;SDS011;4280;50.534;8.708;2024-02-14T04:38:51;16.13;;;4.50;;
8486;SDS011;4280;50.534;8.708;2024-02-14T04:41:17;5.77;;;4.23;;
8486;SDS011;4280;50.534;8.708;2024-02-14T04:43:43;14.63;;;4.20;;
8486;SDS011;4280;50.534;8.708;2024-02-14T04:46:09;16.27;;;4.03;;
8486;SDS011;4280;50.534;8.708;2024-02-14T04:48:35;6.87;;;4.23;;
8486;SDS011;4280;50.534;8.708;2024-02-14T04:51:01;9.97;;;5.17;;
8486;SDS011;4280;50.534;8.708;2024-02-14T04:53:28;10.60;;;4.53;;
8486;SDS011;4280;50.534;8.708;2024-02-14T04:55:54;9.00;;;4.00;;
8486;SDS011;4280;50.534;8.708;2024-02-14T04:58:20;8.50;;;4.63;;
8486;SDS011;4280;50.534;8.708;2024-02-14T05:00:46;8.13;;;4.20;;
8486;SDS011;4280;50.534;8.708;2024-02-14T05:03:11;9.60;;;5.10;;
8486;SDS011;4280;50.534;8.708;2024-02-14T05:05:37;15.10;;;4.80;;
8486;SDS011;4280;50.534;8.708;2024-02-14T05:08:03;17.00;;;5.33;;
8486;SDS011;4280;50.534;8.708;2024-02-14T05:10:29;10.43;;;5.43;;
8486;SDS011;4280;50.534;8.708;2024-02-14T05:12:56;13.70;;;5.93;;
8486;SDS011;4280;50.534;8.708;2024-02-14T05:15:22;11.23;;;5.03;;
8486;SDS011;4280;50.534;8.708;2024-02-14T05:17:48;9.13;;;4.40;;
8486;SDS011;4280;50.534;8.708;2024-02-14T05:20:15;15.13;;;5.53;;
8486;SDS011;4280;50.534;8.708;2024-02-14T05:22:42;15.70;;;5.17;;
8486;SDS011;4280;50.534;8.708;2024-02-14T05:25:08;7.33;;;4.47;;
8486;SDS011;4280;50.534;8.708;2024-02-14T05:27:37;7.80;;;4.57;;
8486;SDS011;4280;50.534;8.708;2024-02-14T05:30:03;8.40;;;4.60;;
8486;SDS011;4280;50.534;8.708;2024-02-14T05:32:31;13.23;;;4.83;;
8486;SDS011;4280;50.534;8.708;2024-02-14T05:34:58;14.60;;;5.33;;
8486;SDS011;4280;50.534;8.708;2024-02-14T05:37:24;11.93;;;4.90;;
8486;SDS011;4280;50.534;8.708;2024-02-14T05:39:52;17.30;;;4.87;;
8486;SDS011;4280;50.534;8.708;2024-02-14T05:42:18;12.23;;;4.30;;
8486;SDS011;4280;50.534;8.708;2024-02-14T05:44:44;8.63;;;3.87;;
8486;SDS011;4280;50.534;8.708;2024-02-14T05:47:10;10.37;;;4.60;;
8486;SDS011;4280;50.534;8.708;2024-02-14T05:49:37;13.13;;;5.60;;
8486;SDS011;4280;50.534;8.708;2024-02-14T05:52:06;5.97;;;4.23;;
8486;SDS011;4280;50.534;8.708;2024-02-14T05:54:33;15.60;;;4.43;;
8486;SDS011;4280;50.534;8.708;2024-02-14T05:56:59;14.10;;;4.57;;
8486;SDS011;4280;50.534;8.708;2024-02-14T05:59:27;9.40;;;4.70;;
8486;SDS011;4280;50.534;8.708;2024-02-14T06:01:53;14.40;;;5.30;;
8486;SDS011;4280;50.534;8.708;2024-02-14T06:04:18;9.90;;;4.80;;
8486;SDS011;4280;50.534;8.708;2024-02-14T06:06:44;12.20;;;3.73;;
8486;SDS011;4280;50.534;8.708;2024-02-14T06:09:10;5.60;;;3.90;;
8486;SDS011;4280;50.534;8.708;2024-02-14T06:11:36;6.20;;;4.37;;
8486;SDS011;4280;50.534;8.708;2024-02-14T06:14:06;15.47;;;4.00;;
8486;SDS011;4280;50.534;8.708;2024-02-14T06:16:32;7.07;;;4.50;;
8486;SDS011;4280;50.534;8.708;2024-02-14T06:18:58;8.20;;;4.23;;
8486;SDS011;4280;50.534;8.708;2024-02-14T06:21:24;8.60;;;4.07;;
8486;SDS011;4280;50.534;8.708;2024-02-14T06:23:51;12.23;;;4.60;;
8486;SDS011;4280;50.534;8.708;2024-02-14T06:26:17;11.20;;;4.77;;
8486;SDS011;4280;50.534;8.708;2024-02-14T06:28:46;9.17;;;4.10;;
8486;SDS011;4280;50.534;8.708;2024-02-14T06:31:12;9.23;;;4.73;;
8486;SDS011;4280;50.534;8.708;2024-02-14T06:33:39;6.83;;;4.70;;
8486;SDS011;4280;50.534;8.708;2024-02-14T06:36:05;9.10;;;4.80;;
8486;SDS011;4280;50.534;8.708;2024-02-14T06:38:31;14.03;;;5.00;;
8486;SDS011;4280;50.534;8.708;2024-02-14T06:40:56;8.93;;;4.90;;
8486;SDS011;4280;50.534;8.708;2024-02-14T06:43:22;8.80;;;4.67;;
8486;SDS011;4280;50.534;8.708;2024-02-14T06:45:48;6.63;;;3.53;;
8486;SDS011;4280;50.534;8.708;2024-02-14T06:48:14;10.40;;;5.10;;
8486;SDS011;4280;50.534;8.708;2024-02-14T06:50:39;10.23;;;4.47;;
8486;SDS011;4280;50.534;8.708;2024-02-14T06:53:05;12.70;;;4.80;;
8486;SDS011;4280;50.534;8.708;2024-02-14T06:55:31;17.93;;;4.70;;
8486;SDS011;4280;50.534;8.708;2024-02-14T06:57:58;6.50;;;4.10;;
8486;SDS011;4280;50.534;8.708;2024-02-14T07:00:24;15.50;;;4.93;;
8486;SDS011;4280;50.534;8.708;2024-02-14T07:02:50;10.30;;;5.10;;
8486;SDS011;4280;50.534;8.708;2024-02-14T07:05:16;12.70;;;4.80;;
8486;SDS011;4280;50.534;8.708;2024-02-14T07:07:41;10.23;;;5.57;;
8486;SDS011;4280;50.534;8.708;2024-02-14T07:10:07;14.83;;;4.33;;
8486;SDS011;4280;50.534;8.708;2024-02-14T07:12:34;7.97;;;5.00;;
8486;SDS011;4280;50.534;8.708;2024-02-14T07:15:01;8.97;;;5.30;;
8486;SDS011;4280;50.534;8.708;2024-02-14T07:17:29;10.20;;;4.90;;
8486;SDS011;4280;50.534;8.708;2024-02-14T07:19:55;12.87;;;5.50;;
8486;SDS011;4280;50.534;8.708;2024-02-14T07:22:21;11.70;;;5.07;;
8486;SDS011;4280;50.534;8.708;2024-02-14T07:24:47;12.47;;;4.60;;
8486;SDS011;4280;50.534;8.708;2024-02-14T07:27:14;10.37;;;5.40;;
8486;SDS011;4280;50.534;8.708;2024-02-14T07:29:41;11.53;;;5.10;;
8486;SDS011;4280;50.534;8.708;2024-02-14T07:32:07;13.80;;;5.50;;
8486;SDS011;4280;50.534;8.708;2024-02-14T07:34:33;13.20;;;5.80;;
8486;SDS011;4280;50.534;8.708;2024-02-14T07:36:58;13.87;;;5.67;;
8486;SDS011;4280;50.534;8.708;2024-02-14T07:39:24;12.93;;;6.50;;
8486;SDS011;4280;50.534;8.708;2024-02-14T07:41:50;14.47;;;5.27;;
8486;SDS011;4280;50.534;8.708;2024-02-14T07:44:16;8.57;;;5.17;;
8486;SDS011;4280;50.534;8.708;2024-02-14T07:46:42;18.43;;;5.93;;
8486;SDS011;4280;50.534;8.708;2024-02-14T07:49:08;18.47;;;5.80;;
8486;SDS011;4280;50.534;8.708;2024-02-14T07:51:35;9.53;;;5.37;;
8486;SDS011;4280;50.534;8.708;2024-02-14T07:54:04;14.33;;;5.73;;
8486;SDS011;4280;50.534;8.708;2024-02-14T07:56:30;15.50;;;5.43;;
8486;SDS011;4280;50.534;8.708;2024-02-14T07:58:56;14.30;;;5.53;;
8486;SDS011;4280;50.534;8.708;2024-02-14T08:01:22;13.83;;;5.20;;
8486;SDS011;4280;50.534;8.708;2024-02-14T08:03:48;10.60;;;5.50;;
8486;SDS011;4280;50.534;8.708;2024-02-14T08:06:14;18.33;;;5.90;;
8486;SDS011;4280;50.534;8.708;2024-02-14T08:08:40;14.87;;;5.37;;
8486;SDS011;4280;50.534;8.708;2024-02-14T08:11:05;15.17;;;6.30;;
8486;SDS011;4280;50.534;8.708;2024-02-14T08:13:32;10.97;;;4.73;;
8486;SDS011;4280;50.534;8.708;2024-02-14T08:15:57;17.33;;;5.30;;
8486;SDS011;4280;50.534;8.708;2024-02-14T08:18:23;12.93;;;5.47;;
8486;SDS011;4280;50.534;8.708;2024-02-14T08:20:49;10.87;;;5.47;;
8486;SDS011;4280;50.534;8.708;2024-02-14T08:23:15;11.13;;;5.57;;
8486;SDS011;4280;50.534;8.708;2024-02-14T08:25:42;15.53;;;5.07;;
8486;SDS011;4280;50.534;8.708;2024-02-14T08:28:07;14.93;;;5.43;;
8486;SDS011;4280;50.534;8.708;2024-02-14T08:30:34;14.57;;;5.23;;
8486;SDS011;4280;50.534;8.708;2024-02-14T08:33:00;9.23;;;5.07;;
8486;SDS011;4280;50.534;8.708;2024-02-14T08:35:26;16.83;;;4.80;;
8486;SDS011;4280;50.534;8.708;2024-02-14T08:37:52;5.70;;;3.83;;
8486;SDS011;4280;50.534;8.708;2024-02-14T08:40:17;14.00;;;4.93;;
8486;SDS011;4280;50.534;8.708;2024-02-14T08:42:43;7.53;;;4.10;;
8486;SDS011;4280;50.534;8.708;2024-02-14T08:45:09;9.90;;;5.07;;
8486;SDS011;4280;50.534;8.708;2024-02-14T08:47:35;16.23;;;5.00;;
8486;SDS011;4280;50.534;8.708;2024-02-14T08:50:01;12.47;;;5.43;;
8486;SDS011;4280;50.534;8.708;2024-02-14T08:52:29;8.77;;;5.20;;
8486;SDS011;4280;50.534;8.708;2024-02-14T08:54:55;10.50;;;4.30;;
8486;SDS011;4280;50.534;8.708;2024-02-14T08:57:20;10.57;;;4.93;;
8486;SDS011;4280;50.534;8.708;2024-02-14T08:59:47;12.20;;;3.97;;
8486;SDS011;4280;50.534;8.708;2024-02-14T09:02:14;8.67;;;4.40;;
8486;SDS011;4280;50.534;8.708;2024-02-14T09:04:40;9.00;;;4.93;;
8486;SDS011;4280;50.534;8.708;2024-02-14T09:07:09;12.70;;;4.90;;
8486;SDS011;4280;50.534;8.708;2024-02-14T09:09:35;10.33;;;4.73;;
8486;SDS011;4280;50.534;8.708;2024-02-14T09:12:03;11.47;;;4.30;;
8486;SDS011;4280;50.534;8.708;2024-02-14T09:14:29;16.73;;;5.17;;
8486;SDS011;4280;50.534;8.708;2024-02-14T09:16:55;13.83;;;5.47;;
8486;SDS011;4280;50.534;8.708;2024-02-14T09:19:21;8.70;;;4.27;;
8486;SDS011;4280;50.534;8.708;2024-02-14T09:21:48;10.77;;;4.03;;
8486;SDS011;4280;50.534;8.708;2024-02-14T09:24:14;11.43;;;4.00;;
8486;SDS011;4280;50.534;8.708;2024-02-14T09:26:39;10.70;;;4.70;;
8486;SDS011;4280;50.534;8.708;2024-02-14T09:29:05;11.10;;;4.43;;
8486;SDS011;4280;50.534;8.708;2024-02-14T09:31:31;7.70;;;3.90;;
8486;SDS011;4280;50.534;8.708;2024-02-14T09:33:57;8.63;;;4.43;;
8486;SDS011;4280;50.534;8.708;2024-02-14T09:36:23;7.70;;;3.83;;
8486;SDS011;4280;50.534;8.708;2024-02-14T09:38:52;14.27;;;4.37;;
8486;SDS011;4280;50.534;8.708;2024-02-14T09:41:22;8.27;;;4.10;;
8486;SDS011;4280;50.534;8.708;2024-02-14T09:43:53;7.83;;;4.30;;
8486;SDS011;4280;50.534;8.708;2024-02-14T09:46:19;8.90;;;4.60;;
8486;SDS011;4280;50.534;8.708;2024-02-14T09:48:50;7.37;;;3.93;;
8486;SDS011;4280;50.534;8.708;2024-02-14T09:51:18;8.77;;;4.17;;
8486;SDS011;4280;50.534;8.708;2024-02-14T09:53:44;15.43;;;6.50;;
8486;SDS011;4280;50.534;8.708;2024-02-14T09:56:11;17.20;;;7.10;;
8486;SDS011;4280;50.534;8.708;2024-02-14T09:58:38;15.60;;;6.37;;
8486;SDS011;4280;50.534;8.708;2024-02-14T10:01:06;11.70;;;5.80;;
8486;SDS011;4280;50.534;8.708;2024-02-14T10:03:32;10.80;;;5.60;;
8486;SDS011;4280;50.534;8.708;2024-02-14T10:05:59;16.20;;;8.47;;
8486;SDS011;4280;50.534;8.708;2024-02-14T10:08:25;15.40;;;6.97;;
8486;SDS011;4280;50.534;8.708;2024-02-14T10:10:51;8.83;;;4.77;;
8486;SDS011;4280;50.534;8.708;2024-02-14T10:13:17;11.17;;;4.03;;
8486;SDS011;4280;50.534;8.708;2024-02-14T10:15:43;9.33;;;4.03;;
8486;SDS011;4280;50.534;8.708;2024-02-14T10:18:09;7.20;;;3.70;;
8486;SDS011;4280;50.534;8.708;2024-02-14T10:20:35;11.97;;;5.23;;
8486;SDS011;4280;50.534;8.708;2024-02-14T10:23:07;14.03;;;4.40;;
8486;SDS011;4280;50.534;8.708;2024-02-14T10:25:37;16.23;;;5.80;;
8486;SDS011;4280;50.534;8.708;2024-02-14T10:28:06;10.90;;;4.93;;
8486;SDS011;4280;50.534;8.708;2024-02-14T10:30:33;11.13;;;5.00;;
8486;SDS011;4280;50.534;8.708;2024-02-14T10:33:05;9.97;;;4.57;;
8486;SDS011;4280;50.534;8.708;2024-02-14T10:35:32;7.37;;;4.70;;
8486;SDS011;4280;50.534;8.708;2024-02-14T10:38:01;7.93;;;5.20;;
8486;SDS011;4280;50.534;8.708;2024-02-14T10:40:28;7.37;;;4.33;;
8486;SDS011;4280;50.534;8.708;2024-02-14T10:42:57;19.43;;;6.33;;
8486;SDS011;4280;50.534;8.708;2024-02-14T10:45:24;16.50;;;4.33;;
8486;SDS011;4280;50.534;8.708;2024-02-14T10:47:51;8.70;;;4.03;;
8486;SDS011;4280;50.534;8.708;2024-02-14T10:50:18;12.23;;;5.03;;
8486;SDS011;4280;50.534;8.708;2024-02-14T10:52:46;4.67;;;4.10;;
8486;SDS011;4280;50.534;8.708;2024-02-14T10:55:14;13.73;;;3.90;;
8486;SDS011;4280;50.534;8.708;2024-02-14T10:57:45;8.13;;;3.47;;
8486;SDS011;4280;50.534;8.708;2024-02-14T11:00:12;10.73;;;3.90;;
8486;SDS011;4280;50.534;8.708;2024-02-14T11:02:41;6.70;;;4.20;;
8486;SDS011;4280;50.534;8.708;2024-02-14T11:05:14;9.77;;;3.93;;
8486;SDS011;4280;50.534;8.708;2024-02-14T11:07:44;10.20;;;4.30;;
8486;SDS011;4280;50.534;8.708;2024-02-14T11:10:15;5.93;;;4.07;;
8486;SDS011;4280;50.534;8.708;2024-02-14T11:12:42;4.80;;;3.30;;
8486;SDS011;4280;50.534;8.708;2024-02-14T11:17:36;3.33;;;2.20;;
8486;SDS011;4280;50.534;8.708;2024-02-14T11:23:01;11.20;;;2.57;;
8486;SDS011;4280;50.534;8.708;2024-02-14T11:25:32;2.03;;;1.83;;
8486;SDS011;4280;50.534;8.708;2024-02-14T11:27:59;2.83;;;1.00;;
8486;SDS011;4280;50.534;8.708;2024-02-14T11:30:41;3.23;;;1.20;;
8486;SDS011;4280;50.534;8.708;2024-02-14T11:33:18;2.60;;;1.07;;
8486;SDS011;4280;50.534;8.708;2024-02-14T11:35:49;4.77;;;1.50;;
8486;SDS011;4280;50.534;8.708;2024-02-14T11:38:21;3.27;;;1.37;;
8486;SDS011;4280;50.534;8.708;2024-02-14T11:40:50;4.27;;;1.30;;
8486;SDS011;4280;50.534;8.708;2024-02-14T11:43:19;4.93;;;1.13;;
8486;SDS011;4280;50.534;8.708;2024-02-14T11:45:46;1.10;;;1.00;;
8486;SDS011;4280;50.534;8.708;2024-02-14T11:48:15;4.57;;;1.03;;
8486;SDS011;4280;50.534;8.708;2024-02-14T11:50:42;7.43;;;1.20;;
8486;SDS011;4280;50.534;8.708;2024-02-14T11:53:10;3.80;;;1.17;;
8486;SDS011;4280;50.534;8.708;2024-02-14T11:55:37;1.27;;;0.77;;
8486;SDS011;4280;50.534;8.708;2024-02-14T11:58:09;2.93;;;1.20;;
8486;SDS011;4280;50.534;8.708;2024-02-14T12:00:54;2.33;;;0.90;;
8486;SDS011;4280;50.534;8.708;2024-02-14T12:03:23;0.93;;;0.67;;
8486;SDS011;4280;50.534;8.708;2024-02-14T12:05:50;1.40;;;1.10;;
8486;SDS011;4280;50.534;8.708;2024-02-14T12:08:17;4.13;;;1.23;;
8486;SDS011;4280;50.534;8.708;2024-02-14T12:10:44;0.87;;;0.70;;
8486;SDS011;4280;50.534;8.708;2024-02-14T12:13:17;3.70;;;1.70;;
8486;SDS011;4280;50.534;8.708;2024-02-14T12:15:49;6.27;;;1.33;;
8486;SDS011;4280;50.534;8.708;2024-02-14T12:18:16;3.73;;;1.10;;
8486;SDS011;4280;50.534;8.708;2024-02-14T12:20:44;4.33;;;1.50;;
8486;SDS011;4280;50.534;8.708;2024-02-14T12:23:17;1.03;;;1.03;;
8486;SDS011;4280;50.534;8.708;2024-02-14T12:25:44;4.57;;;1.20;;
8486;SDS011;4280;50.534;8.708;2024-02-14T12:28:18;2.20;;;0.83;;
8486;SDS011;4280;50.534;8.708;2024-02-14T12:30:50;1.17;;;0.93;;
8486;SDS011;4280;50.534;8.708;2024-02-14T12:33:21;1.07;;;0.80;;
8486;SDS011;4280;50.534;8.708;2024-02-14T12:35:51;1.90;;;0.73;;
8486;SDS011;4280;50.534;8.708;2024-02-14T12:38:20;1.07;;;0.97;;
8486;SDS011;4280;50.534;8.708;2024-02-14T12:40:48;2.30;;;0.90;;
8486;SDS011;4280;50.534;8.708;2024-02-14T12:43:14;5.80;;;0.70;;
8486;SDS011;4280;50.534;8.708;2024-02-14T12:45:43;2.17;;;1.13;;
8486;SDS011;4280;50.534;8.708;2024-02-14T12:48:09;2.60;;;0.80;;
8486;SDS011;4280;50.534;8.708;2024-02-14T12:50:38;1.93;;;0.77;;
8486;SDS011;4280;50.534;8.708;2024-02-14T12:53:05;1.40;;;0.93;;
8486;SDS011;4280;50.534;8.708;2024-02-14T12:58:10;0.93;;;0.57;;
8486;SDS011;4280;50.534;8.708;2024-02-14T13:00:36;1.47;;;0.90;;
8486;SDS011;4280;50.534;8.708;2024-02-14T13:03:03;3.17;;;0.77;;
8486;SDS011;4280;50.534;8.708;2024-02-14T13:05:29;2.43;;;0.90;;
8486;SDS011;4280;50.534;8.708;2024-02-14T13:07:55;2.70;;;0.87;;
8486;SDS011;4280;50.534;8.708;2024-02-14T13:10:21;2.20;;;0.90;;
8486;SDS011;4280;50.534;8.708;2024-02-14T13:12:48;2.80;;;1.20;;
8486;SDS011;4280;50.534;8.708;2024-02-14T13:15:14;3.77;;;0.90;;
8486;SDS011;4280;50.534;8.708;2024-02-14T13:17:41;1.33;;;0.90;;
8486;SDS011;4280;50.534;8.708;2024-02-14T13:20:07;5.23;;;1.00;;
8486;SDS011;4280;50.534;8.708;2024-02-14T13:22:34;4.10;;;1.30;;
8486;SDS011;4280;50.534;8.708;2024-02-14T13:25:00;2.10;;;1.00;;
8486;SDS011;4280;50.534;8.708;2024-02-14T13:27:26;2.03;;;1.27;;
8486;SDS011;4280;50.534;8.708;2024-02-14T13:29:51;0.97;;;0.97;;
8486;SDS011;4280;50.534;8.708;2024-02-14T13:32:17;5.67;;;1.07;;
8486;SDS011;4280;50.534;8.708;2024-02-14T13:34:43;2.77;;;0.80;;
8486;SDS011;4280;50.534;8.708;2024-02-14T13:37:09;1.77;;;1.13;;
8486;SDS011;4280;50.534;8.708;2024-02-14T13:39:35;2.50;;;1.00;;
8486;SDS011;4280;50.534;8.708;2024-02-14T13:42:01;3.53;;;1.17;;
8486;SDS011;4280;50.534;8.708;2024-02-14T13:44:27;1.10;;;1.00;;
8486;SDS011;4280;50.534;8.708;2024-02-14T13:46:53;5.50;;;1.50;;
8486;SDS011;4280;50.534;8.708;2024-02-14T13:49:19;3.80;;;1.40;;
8486;SDS011;4280;50.534;8.708;2024-02-14T13:51:48;2.40;;;1.40;;
8486;SDS011;4280;50.534;8.708;2024-02-14T13:54:18;1.53;;;1.07;;
8486;SDS011;4280;50.534;8.708;2024-02-14T13:56:44;2.67;;;1.20;;
8486;SDS011;4280;50.534;8.708;2024-02-14T13:59:10;3.50;;;1.20;;
8486;SDS011;4280;50.534;8.708;2024-02-14T14:01:36;2.23;;;1.50;;
8486;SDS011;4280;50.534;8.708;2024-02-14T14:04:02;3.43;;;1.20;;
8486;SDS011;4280;50.534;8.708;2024-02-14T14:06:29;1.93;;;1.47;;
8486;SDS011;4280;50.534;8.708;2024-02-14T14:08:55;3.83;;;1.47;;
8486;SDS011;4280;50.534;8.708;2024-02-14T14:11:21;1.50;;;1.23;;
8486;SDS011;4280;50.534;8.708;2024-02-14T14:13:47;2.40;;;1.10;;
8486;SDS011;4280;50.534;8.708;2024-02-14T14:16:12;4.00;;;1.90;;
8486;SDS011;4280;50.534;8.708;2024-02-14T14:18:38;7.03;;;1.40;;
8486;SDS011;4280;50.534;8.708;2024-02-14T14:21:04;3.20;;;1.50;;
8486;SDS011;4280;50.534;8.708;2024-02-14T14:23:30;3.73;;;1.43;;
8486;SDS011;4280;50.534;8.708;2024-02-14T14:25:57;2.70;;;1.30;;
8486;SDS011;4280;50.534;8.708;2024-02-14T14:28:26;3.60;;;1.43;;
8486;SDS011;4280;50.534;8.708;2024-02-14T14:30:53;0.80;;;0.67;;
8486;SDS011;4280;50.534;8.708;2024-02-14T14:33:20;1.30;;;1.20;;
8486;SDS011;4280;50.534;8.708;2024-02-14T14:35:46;2.70;;;0.90;;
8486;SDS011;4280;50.534;8.708;2024-02-14T14:38:15;7.67;;;1.90;;
8486;SDS011;4280;50.534;8.708;2024-02-14T14:40:41;10.60;;;2.20;;
8486;SDS011;4280;50.534;8.708;2024-02-14T14:43:06;3.47;;;1.90;;
8486;SDS011;4280;50.534;8.708;2024-02-14T14:45:32;25.00;;;2.73;;
8486;SDS011;4280;50.534;8.708;2024-02-14T14:47:58;16.63;;;2.40;;
8486;SDS011;4280;50.534;8.708;2024-02-14T14:50:24;9.70;;;2.43;;
8486;SDS011;4280;50.534;8.708;2024-02-14T14:52:50;4.40;;;2.20;;
8486;SDS011;4280;50.534;8.708;2024-02-14T14:55:19;3.93;;;2.27;;
8486;SDS011;4280;50.534;8.708;2024-02-14T14:57:45;7.03;;;2.17;;
8486;SDS011;4280;50.534;8.708;2024-02-14T15:00:11;4.13;;;2.30;;
8486;SDS011;4280;50.534;8.708;2024-02-14T15:02:41;7.43;;;2.80;;
8486;SDS011;4280;50.534;8.708;2024-02-14T15:05:10;17.20;;;4.83;;
8486;SDS011;4280;50.534;8.708;2024-02-14T15:07:37;4.00;;;2.00;;
8486;SDS011;4280;50.534;8.708;2024-02-14T15:10:04;33.70;;;3.40;;
8486;SDS011;4280;50.534;8.708;2024-02-14T15:12:32;7.13;;;3.33;;
8486;SDS011;4280;50.534;8.708;2024-02-14T15:15:01;7.03;;;3.80;;
8486;SDS011;4280;50.534;8.708;2024-02-14T15:17:28;7.30;;;3.70;;